createdAt,value
2022-09-23T00:01:05.328Z,1.67
2022-09-23T00:03:33.298Z,2.05
2022-09-23T00:06:10.651Z,1.90
2022-09-23T00:08:38.558Z,1.88
2022-09-23T00:11:13.411Z,1.52
2022-09-23T00:13:42.160Z,1.98
2022-09-23T00:16:17.129Z,1.58
2022-09-23T00:18:44.195Z,1.73
2022-09-23T00:21:14.401Z,2.00
2022-09-23T00:23:42.830Z,1.92
2022-09-23T00:26:12.316Z,1.50
2022-09-23T00:28:40.290Z,1.70
2022-09-23T00:31:13.190Z,1.80
2022-09-23T00:33:43.326Z,1.60
2022-09-23T00:36:15.618Z,1.95
2022-09-23T00:38:44.059Z,1.35
2022-09-23T00:41:11.795Z,1.30
2022-09-23T00:43:42.816Z,1.60
2022-09-23T00:46:13.578Z,1.85
2022-09-23T00:48:42.485Z,1.60
2022-09-23T00:51:12.763Z,1.70
2022-09-23T00:53:40.736Z,1.83
2022-09-23T00:56:10.181Z,1.60
2022-09-23T00:58:40.621Z,1.77
2022-09-23T01:01:07.733Z,1.60
2022-09-23T01:03:35.173Z,1.85
2022-09-23T01:06:02.041Z,1.92
2022-09-23T01:08:29.321Z,1.90
2022-09-23T01:11:23.764Z,1.80
2022-09-23T01:13:56.502Z,1.80
2022-09-23T01:16:27.544Z,1.95
2022-09-23T01:19:10.324Z,2.00
2022-09-23T01:21:45.875Z,1.83
2022-09-23T01:24:20.892Z,2.13
2022-09-23T01:27:13.021Z,2.65
2022-09-23T01:30:03.940Z,2.78
2022-09-23T01:32:39.531Z,2.47
2022-09-23T01:35:18.244Z,2.28
2022-09-23T01:38:07.661Z,2.08
2022-09-23T01:40:39.220Z,2.03
2022-09-23T01:43:36.285Z,2.58
2022-09-23T01:46:07.979Z,2.25
2022-09-23T01:48:46.329Z,2.30
2022-09-23T01:51:19.788Z,2.22
2022-09-23T01:53:49.519Z,2.05
2022-09-23T01:56:30.030Z,1.95
2022-09-23T01:59:12.729Z,2.28
2022-09-23T02:02:00.682Z,2.58
2022-09-23T02:04:36.732Z,2.72
2022-09-23T02:07:20.303Z,2.47
2022-09-23T02:09:54.949Z,2.85
2022-09-23T02:12:27.126Z,2.72
2022-09-23T02:15:06.303Z,2.77
2022-09-23T02:17:55.655Z,3.13
2022-09-23T02:20:28.812Z,2.78
2022-09-23T02:23:26.488Z,2.78
2022-09-23T02:26:22.782Z,2.70
2022-09-23T02:29:19.827Z,2.63
2022-09-23T02:32:17.791Z,2.80
2022-09-23T02:34:53.619Z,2.60
2022-09-23T02:37:50.207Z,2.20
2022-09-23T02:40:26.239Z,1.92
2022-09-23T02:42:55.686Z,2.33
2022-09-23T02:45:22.607Z,1.95
2022-09-23T02:47:55.165Z,2.08
2022-09-23T02:50:22.258Z,2.35
2022-09-23T02:52:49.681Z,2.33
2022-09-23T02:55:18.460Z,2.08
2022-09-23T02:57:45.895Z,2.53
2022-09-23T03:00:13.281Z,2.00
2022-09-23T03:03:13.704Z,1.80
2022-09-23T03:05:53.143Z,1.88
2022-09-23T03:08:32.326Z,1.70
2022-09-23T03:11:07.120Z,1.75
2022-09-23T03:13:53.220Z,1.92
2022-09-23T03:16:50.788Z,2.15
2022-09-23T03:19:27.445Z,2.00
2022-09-23T03:22:35.391Z,2.67
2022-09-23T03:25:08.270Z,2.25
2022-09-23T03:27:36.478Z,2.08
2022-09-23T03:30:06.836Z,1.70
2022-09-23T03:32:36.466Z,1.83
2022-09-23T03:35:05.440Z,1.30
2022-09-23T03:37:35.690Z,1.88
2022-09-23T03:40:23.610Z,2.00
2022-09-23T03:42:51.228Z,1.98
2022-09-23T03:45:26.025Z,2.00
2022-09-23T03:47:53.199Z,2.00
2022-09-23T03:50:21.273Z,1.75
2022-09-23T03:52:50.509Z,1.63
2022-09-23T03:55:19.228Z,1.70
2022-09-23T03:57:46.348Z,1.45
2022-09-23T04:00:14.654Z,1.75
2022-09-23T04:02:41.641Z,1.35
2022-09-23T04:05:09.654Z,1.90
2022-09-23T04:07:36.631Z,1.70
2022-09-23T04:10:05.027Z,1.40
2022-09-23T04:12:31.887Z,1.70
2022-09-23T04:14:58.651Z,1.60
2022-09-23T04:17:25.397Z,1.58
2022-09-23T04:19:52.128Z,1.73
2022-09-23T04:22:18.879Z,1.92
2022-09-23T04:24:45.659Z,1.90
2022-09-23T04:27:12.335Z,1.63
2022-09-23T04:29:39.031Z,1.88
2022-09-23T04:32:05.750Z,2.30
2022-09-23T04:34:32.472Z,2.00
2022-09-23T04:36:59.141Z,1.98
2022-09-23T04:39:25.897Z,2.38
2022-09-23T04:41:52.640Z,2.15
2022-09-23T04:44:21.193Z,2.13
2022-09-23T04:46:49.262Z,2.42
2022-09-23T04:49:16.271Z,1.92
2022-09-23T04:51:43.562Z,1.90
2022-09-23T04:54:11.981Z,2.08
2022-09-23T04:56:39.741Z,1.67
2022-09-23T04:59:07.046Z,1.88
2022-09-23T05:01:35.184Z,2.35
2022-09-23T05:04:05.279Z,1.90
2022-09-23T05:06:35.961Z,1.83
2022-09-23T05:09:05.415Z,2.08
2022-09-23T05:11:32.633Z,1.90
2022-09-23T05:13:59.508Z,2.13
2022-09-23T05:16:27.058Z,2.03
2022-09-23T05:18:54.412Z,2.40
2022-09-23T05:21:23.909Z,2.40
2022-09-23T05:23:56.456Z,2.30
2022-09-23T05:26:25.333Z,2.45
2022-09-23T05:28:53.094Z,2.13
2022-09-23T05:31:22.611Z,2.33
2022-09-23T05:33:54.298Z,2.00
2022-09-23T05:36:22.025Z,2.13
2022-09-23T05:38:50.790Z,2.33
2022-09-23T05:41:19.837Z,2.60
2022-09-23T05:43:47.308Z,2.67
2022-09-23T05:46:16.897Z,2.53
2022-09-23T05:48:46.007Z,2.47
2022-09-23T05:51:16.769Z,2.47
2022-09-23T05:53:46.247Z,2.75
2022-09-23T05:56:14.833Z,2.40
2022-09-23T05:58:41.673Z,2.67
2022-09-23T06:01:13.697Z,2.60
2022-09-23T06:03:40.710Z,2.78
2022-09-23T06:06:11.937Z,3.08
2022-09-23T06:08:38.850Z,2.70
2022-09-23T06:11:07.802Z,3.17
2022-09-23T06:13:38.206Z,2.83
2022-09-23T06:16:13.728Z,2.83
2022-09-23T06:18:42.322Z,2.90
2022-09-23T06:21:12.542Z,2.85
2022-09-23T06:23:41.607Z,2.70
2022-09-23T06:26:11.038Z,2.70
2022-09-23T06:28:40.386Z,2.53
2022-09-23T06:31:15.321Z,2.63
2022-09-23T06:33:43.554Z,2.55
2022-09-23T06:36:11.500Z,2.38
2022-09-23T06:38:44.604Z,2.67
2022-09-23T06:43:38.966Z,2.75
2022-09-23T06:46:07.332Z,2.95
2022-09-23T06:48:42.770Z,2.78
2022-09-23T06:51:19.076Z,2.88
2022-09-23T06:53:47.260Z,3.33
2022-09-23T06:56:14.147Z,2.38
2022-09-23T06:58:41.230Z,2.85
2022-09-23T07:01:11.517Z,2.90
2022-09-23T07:03:39.289Z,2.60
2022-09-23T07:06:06.919Z,2.20
2022-09-23T07:08:35.098Z,2.08
2022-09-23T07:11:04.744Z,2.40
2022-09-23T07:13:34.625Z,2.00
2022-09-23T07:16:02.153Z,2.50
2022-09-23T07:18:37.026Z,1.90
2022-09-23T07:21:10.167Z,2.08
2022-09-23T07:23:37.744Z,2.10
2022-09-23T07:26:05.400Z,3.13
2022-09-23T07:28:32.517Z,2.30
2022-09-23T07:31:07.822Z,2.20
2022-09-23T07:33:39.747Z,2.25
2022-09-23T07:36:28.106Z,2.10
2022-09-23T07:39:00.529Z,2.05
2022-09-23T07:41:28.856Z,2.30
2022-09-23T07:43:58.650Z,2.05
2022-09-23T07:46:27.728Z,2.13
2022-09-23T07:48:55.202Z,2.40
2022-09-23T07:51:47.208Z,2.20
2022-09-23T07:54:15.986Z,2.20
2022-09-23T07:56:43.541Z,1.85
2022-09-23T07:59:15.282Z,2.30
2022-09-23T08:01:48.328Z,1.73
2022-09-23T08:04:30.213Z,2.05
2022-09-23T08:07:04.098Z,1.90
2022-09-23T08:09:35.863Z,1.90
2022-09-23T08:12:02.564Z,1.83
2022-09-23T08:14:29.292Z,2.47
2022-09-23T08:16:57.513Z,2.80
2022-09-23T08:19:24.264Z,2.45
2022-09-23T08:21:52.183Z,1.88
2022-09-23T08:24:20.940Z,1.98
2022-09-23T08:26:48.478Z,1.70
2022-09-23T08:29:17.146Z,2.00
2022-09-23T08:31:56.264Z,2.05
2022-09-23T08:34:32.297Z,1.83
2022-09-23T08:36:59.127Z,1.88
2022-09-23T08:39:25.855Z,1.83
2022-09-23T08:42:17.346Z,1.90
2022-09-23T08:44:51.520Z,1.90
2022-09-23T08:47:18.195Z,1.95
2022-09-23T08:49:57.597Z,1.98
2022-09-23T08:52:33.108Z,1.77
2022-09-23T08:55:01.095Z,1.77
2022-09-23T08:58:23.380Z,1.80
2022-09-23T09:01:09.638Z,1.80
2022-09-23T09:03:55.072Z,1.90
2022-09-23T09:06:24.620Z,1.85
2022-09-23T09:08:57.135Z,1.25
2022-09-23T09:11:31.246Z,1.42
2022-09-23T09:14:22.369Z,1.40
2022-09-23T09:16:59.886Z,1.70
2022-09-23T09:19:53.375Z,1.70
2022-09-23T09:22:27.796Z,1.33
2022-09-23T09:25:04.148Z,2.00
2022-09-23T09:27:31.133Z,1.70
2022-09-23T09:30:01.237Z,1.73
2022-09-23T09:32:46.169Z,1.80
2022-09-23T09:35:39.057Z,1.88
2022-09-23T09:38:05.916Z,2.10
2022-09-23T09:40:35.117Z,2.00
2022-09-23T09:43:05.573Z,2.13
2022-09-23T09:46:10.880Z,1.58
2022-09-23T09:48:54.361Z,1.73
2022-09-23T09:53:52.818Z,1.80
2022-09-23T09:56:31.027Z,1.58
2022-09-23T09:59:15.492Z,1.90
2022-09-23T10:01:42.452Z,1.92
2022-09-23T10:04:35.563Z,1.63
2022-09-23T10:07:16.082Z,1.77
2022-09-23T10:09:52.066Z,2.17
2022-09-23T10:12:26.584Z,1.90
2022-09-23T10:14:57.676Z,1.88
2022-09-23T10:17:31.723Z,1.88
2022-09-23T10:20:02.056Z,1.90
2022-09-23T10:22:33.483Z,2.25
2022-09-23T10:25:24.397Z,2.35
2022-09-23T10:27:51.114Z,2.05
2022-09-23T10:30:26.618Z,2.15
2022-09-23T10:32:56.852Z,1.83
2022-09-23T10:35:28.170Z,1.83
2022-09-23T10:37:59.450Z,2.00
2022-09-23T10:40:48.311Z,1.80
2022-09-23T10:43:52.926Z,1.85
2022-09-23T10:46:49.912Z,1.80
2022-09-23T10:49:46.858Z,1.60
2022-09-23T10:52:22.288Z,1.95
2022-09-23T10:55:29.874Z,1.67
2022-09-23T10:58:34.544Z,1.60
2022-09-23T11:01:38.782Z,1.25
2022-09-23T11:04:44.009Z,1.40
2022-09-23T11:07:38.629Z,1.30
2022-09-23T11:10:44.996Z,1.90
2022-09-23T11:13:24.655Z,1.55
2022-09-23T11:16:03.162Z,1.50
2022-09-23T11:18:39.003Z,1.55
2022-09-23T11:21:23.136Z,1.67
2022-09-23T11:24:20.203Z,1.60
2022-09-23T11:27:18.413Z,1.80
2022-09-23T11:30:09.564Z,1.85
2022-09-23T11:33:07.517Z,1.30
2022-09-23T11:35:38.905Z,2.10
2022-09-23T11:38:15.291Z,1.92
2022-09-23T11:40:46.483Z,2.42
2022-09-23T11:43:23.948Z,1.73
2022-09-23T11:46:15.396Z,1.80
2022-09-23T11:48:54.033Z,1.60
2022-09-23T11:51:38.002Z,1.70
2022-09-23T11:54:20.519Z,1.65
2022-09-23T11:56:53.261Z,3.90
2022-09-23T11:59:39.713Z,1.80
2022-09-23T12:02:34.311Z,1.50
2022-09-23T12:05:09.377Z,1.85
2022-09-23T12:08:07.071Z,1.80
2022-09-23T12:10:59.997Z,1.88
2022-09-23T12:13:50.753Z,1.67
2022-09-23T12:16:29.648Z,1.75
2022-09-23T12:19:24.495Z,1.77
2022-09-23T12:22:02.835Z,2.03
2022-09-23T12:24:51.061Z,1.55
2022-09-23T12:27:32.896Z,2.17
2022-09-23T12:30:04.323Z,1.67
2022-09-23T12:32:32.055Z,1.75
2022-09-23T12:35:00.458Z,2.38
2022-09-23T12:37:28.642Z,1.50
2022-09-23T12:40:00.173Z,1.50
2022-09-23T12:42:30.869Z,1.50
2022-09-23T12:45:32.645Z,1.60
2022-09-23T12:48:02.022Z,2.10
2022-09-23T12:51:15.744Z,2.10
2022-09-23T12:53:50.625Z,2.10
2022-09-23T12:56:20.673Z,1.70
2022-09-23T12:58:47.347Z,1.92
2022-09-23T13:01:20.872Z,1.60
2022-09-23T13:04:08.301Z,2.28
2022-09-23T13:07:13.589Z,1.63
2022-09-23T13:09:45.213Z,1.50
2022-09-23T13:12:40.054Z,1.80
2022-09-23T13:15:22.922Z,1.90
2022-09-23T13:17:49.761Z,1.60
2022-09-23T13:20:19.577Z,2.38
2022-09-23T13:22:49.011Z,1.92
2022-09-23T13:25:22.712Z,1.80
2022-09-23T13:27:53.841Z,2.00
2022-09-23T13:30:26.471Z,1.60
2022-09-23T13:33:12.767Z,1.80
2022-09-23T13:35:44.517Z,2.03
2022-09-23T13:38:23.379Z,1.30
2022-09-23T13:40:50.287Z,1.55
2022-09-23T13:43:41.363Z,2.17
2022-09-23T13:46:19.164Z,2.20
2022-09-23T13:48:48.359Z,1.63
2022-09-23T13:51:30.107Z,2.40
2022-09-23T13:53:59.137Z,2.30
2022-09-23T13:56:28.782Z,2.08
2022-09-23T13:59:23.773Z,1.58
2022-09-23T14:01:50.681Z,2.15
2022-09-23T14:04:25.332Z,2.13
2022-09-23T14:06:53.993Z,1.90
2022-09-23T14:09:24.852Z,2.10
2022-09-23T14:11:52.110Z,2.42
2022-09-23T14:14:19.566Z,2.22
2022-09-23T14:16:50.029Z,2.20
2022-09-23T14:19:25.374Z,2.22
2022-09-23T14:21:53.992Z,2.03
2022-09-23T14:24:31.851Z,2.10
2022-09-23T14:27:07.414Z,2.65
2022-09-23T14:29:39.523Z,2.60
2022-09-23T14:32:20.909Z,2.72
2022-09-23T14:34:51.695Z,2.78
2022-09-23T14:37:36.889Z,2.65
2022-09-23T14:40:08.781Z,2.88
2022-09-23T14:42:41.163Z,2.60
2022-09-23T14:45:18.916Z,2.50
2022-09-23T14:47:49.621Z,2.25
2022-09-23T14:50:39.168Z,2.35
2022-09-23T14:53:33.602Z,2.72
2022-09-23T14:56:06.452Z,2.90
2022-09-23T14:58:56.206Z,2.50
2022-09-23T15:01:32.182Z,2.67
2022-09-23T15:04:13.073Z,2.50
2022-09-23T15:06:49.708Z,2.80
2022-09-23T15:09:24.851Z,2.25
2022-09-23T15:12:05.106Z,2.40
2022-09-23T15:14:39.435Z,2.30
2022-09-23T15:17:23.457Z,2.45
2022-09-23T15:20:15.985Z,2.67
2022-09-23T15:22:48.510Z,2.70
2022-09-23T15:25:17.744Z,2.28
2022-09-23T15:27:57.048Z,2.47
2022-09-23T15:30:23.920Z,2.25
2022-09-23T15:32:50.785Z,2.45
2022-09-23T15:35:19.725Z,2.30
2022-09-23T15:37:48.536Z,1.98
2022-09-23T15:40:29.169Z,2.25
2022-09-23T15:42:58.745Z,2.33
2022-09-23T15:45:36.143Z,2.05
2022-09-23T15:48:08.154Z,2.13
2022-09-23T15:50:36.107Z,1.90
2022-09-23T15:53:03.271Z,2.05
2022-09-23T15:55:30.023Z,2.25
2022-09-23T15:57:56.755Z,2.45
2022-09-23T16:00:24.099Z,2.80
2022-09-23T16:02:51.648Z,1.70
2022-09-23T16:05:34.820Z,2.45
2022-09-23T16:08:07.898Z,2.10
2022-09-23T16:10:36.032Z,2.30
2022-09-23T16:13:06.274Z,2.30
2022-09-23T16:15:33.546Z,2.00
2022-09-23T16:18:00.995Z,2.33
2022-09-23T16:20:29.942Z,1.98
2022-09-23T16:23:05.967Z,1.88
2022-09-23T16:25:37.065Z,2.08
2022-09-23T16:28:05.014Z,1.95
2022-09-23T16:30:34.178Z,2.08
2022-09-23T16:33:01.898Z,2.60
2022-09-23T16:35:32.715Z,2.70
2022-09-23T16:37:59.473Z,2.55
2022-09-23T16:40:26.347Z,3.03
2022-09-23T16:42:54.878Z,2.40
2022-09-23T16:45:23.068Z,2.22
2022-09-23T16:47:51.840Z,2.45
2022-09-23T16:50:22.572Z,2.60
2022-09-23T16:52:52.228Z,2.95
2022-09-23T16:55:19.021Z,2.38
2022-09-23T16:57:45.717Z,2.63
2022-09-23T17:00:34.086Z,2.30
2022-09-23T17:03:19.964Z,2.40
2022-09-23T17:05:47.182Z,2.63
2022-09-23T17:08:16.089Z,2.40
2022-09-23T17:10:45.274Z,1.80
2022-09-23T17:13:16.621Z,2.22
2022-09-23T17:15:44.055Z,2.60
2022-09-23T17:18:11.405Z,1.92
2022-09-23T17:20:38.862Z,2.60
2022-09-23T17:23:05.756Z,2.58
2022-09-23T17:25:34.013Z,2.70
2022-09-23T17:28:01.101Z,2.50
2022-09-23T17:30:28.719Z,2.40
2022-09-23T17:32:55.437Z,2.33
2022-09-23T17:35:22.125Z,2.30
2022-09-23T17:37:48.830Z,2.33
2022-09-23T17:40:15.786Z,2.35
2022-09-23T17:42:42.572Z,2.55
2022-09-23T17:45:12.440Z,2.50
2022-09-23T17:47:41.815Z,3.03
2022-09-23T17:50:08.971Z,2.60
2022-09-23T17:52:35.717Z,2.65
2022-09-23T17:55:02.484Z,2.58
2022-09-23T17:57:29.142Z,2.67
2022-09-23T17:59:56.097Z,2.40
2022-09-23T18:02:22.942Z,2.75
2022-09-23T18:04:49.791Z,2.95
2022-09-23T18:07:16.685Z,2.80
2022-09-23T18:09:43.478Z,2.88
2022-09-23T18:12:10.179Z,3.38
2022-09-23T18:14:36.888Z,3.83
2022-09-23T18:17:03.596Z,3.53
2022-09-23T18:19:30.330Z,3.70
2022-09-23T18:21:57.309Z,3.53
2022-09-23T18:24:33.465Z,3.17
2022-09-23T18:27:01.202Z,3.30
2022-09-23T18:29:28.097Z,3.40
2022-09-23T18:31:54.896Z,3.10
2022-09-23T18:34:21.883Z,2.80
2022-09-23T18:36:48.663Z,2.65
2022-09-23T18:39:15.394Z,2.88
2022-09-23T18:41:42.280Z,2.50
2022-09-23T18:44:09.591Z,2.22
2022-09-23T18:46:36.507Z,2.40
2022-09-23T18:49:21.763Z,2.33
2022-09-23T18:51:56.371Z,2.65
2022-09-23T18:54:24.268Z,2.20
2022-09-23T18:56:52.698Z,2.50
2022-09-23T18:59:25.160Z,2.22
2022-09-23T19:01:55.352Z,2.67
2022-09-23T19:04:23.918Z,2.90
2022-09-23T19:06:50.791Z,2.28
2022-09-23T19:09:18.901Z,2.67
2022-09-23T19:11:46.106Z,2.60
2022-09-23T19:14:13.487Z,2.67
2022-09-23T19:16:41.270Z,3.20
2022-09-23T19:19:08.380Z,2.70
2022-09-23T19:21:35.935Z,3.15
2022-09-23T19:24:05.814Z,3.45
2022-09-23T19:26:40.411Z,3.10
2022-09-23T19:29:12.490Z,3.40
2022-09-23T19:31:43.479Z,3.30
2022-09-23T19:34:14.460Z,3.33
2022-09-23T19:36:43.929Z,2.92
2022-09-23T19:39:26.185Z,2.60
2022-09-23T19:41:57.077Z,2.70
2022-09-23T19:44:25.326Z,2.95
2022-09-23T19:46:56.416Z,2.90
2022-09-23T19:49:24.743Z,3.00
2022-09-23T19:51:52.922Z,2.45
2022-09-23T19:54:20.642Z,2.92
2022-09-23T19:56:49.928Z,3.20
2022-09-23T19:59:19.218Z,3.10
2022-09-23T20:01:47.788Z,3.22
2022-09-23T20:04:15.735Z,3.40
2022-09-23T20:06:43.192Z,2.78
2022-09-23T20:09:10.145Z,3.08
2022-09-23T20:11:37.130Z,3.90
2022-09-23T20:14:05.972Z,3.75
2022-09-23T20:16:35.199Z,3.90
2022-09-23T20:19:03.956Z,3.70
2022-09-23T20:21:31.225Z,3.88
2022-09-23T20:23:58.102Z,3.60
2022-09-23T20:26:43.430Z,3.88
2022-09-23T20:29:11.017Z,3.83
2022-09-23T20:31:41.498Z,3.85
2022-09-23T20:34:10.381Z,3.72
2022-09-23T20:36:38.455Z,3.60
2022-09-23T20:39:06.018Z,3.50
2022-09-23T20:41:37.487Z,3.47
2022-09-23T20:44:07.544Z,3.83
2022-09-23T20:46:35.005Z,3.30
2022-09-23T20:49:02.784Z,3.58
2022-09-23T20:51:29.557Z,3.08
2022-09-23T20:53:56.322Z,3.55
2022-09-23T20:56:23.878Z,3.28
2022-09-23T20:58:52.483Z,3.03
2022-09-23T21:01:20.169Z,3.70
2022-09-23T21:03:49.279Z,3.30
2022-09-23T21:06:18.657Z,3.05
2022-09-23T21:08:45.893Z,3.53
2022-09-23T21:11:15.354Z,3.67
2022-09-23T21:13:47.188Z,4.03
2022-09-23T21:16:16.098Z,3.83
2022-09-23T21:18:43.897Z,3.78
2022-09-23T21:21:12.205Z,3.72
2022-09-23T21:23:39.991Z,3.78
2022-09-23T21:26:12.228Z,3.50
2022-09-23T21:28:41.543Z,3.72
2022-09-23T21:31:22.986Z,3.72
2022-09-23T21:34:01.477Z,3.70
2022-09-23T21:36:30.394Z,4.78
2022-09-23T21:38:58.077Z,3.63
2022-09-23T21:41:25.107Z,3.33
2022-09-23T21:43:51.911Z,3.53
2022-09-23T21:46:20.684Z,3.35
2022-09-23T21:48:53.242Z,3.50
2022-09-23T21:51:23.115Z,3.75
2022-09-23T21:53:49.938Z,3.40
2022-09-23T21:56:23.066Z,3.30
2022-09-23T21:58:52.156Z,3.47
2022-09-23T22:01:21.331Z,3.10
2022-09-23T22:03:59.449Z,3.55
2022-09-23T22:06:28.116Z,3.20
2022-09-23T22:09:00.562Z,3.35
2022-09-23T22:11:48.523Z,3.95
2022-09-23T22:14:17.005Z,3.40
2022-09-23T22:16:44.412Z,3.38
2022-09-23T22:19:13.527Z,3.28
2022-09-23T22:21:42.345Z,3.53
2022-09-23T22:24:10.655Z,3.70
2022-09-23T22:26:42.301Z,3.95
2022-09-23T22:29:30.362Z,3.83
2022-09-23T22:32:16.083Z,4.13
2022-09-23T22:34:51.603Z,3.88
2022-09-23T22:37:26.151Z,3.70
2022-09-23T22:39:53.681Z,3.25
2022-09-23T22:42:23.671Z,4.22
2022-09-23T22:44:51.360Z,3.85
2022-09-23T22:47:19.545Z,5.28
2022-09-23T22:49:46.970Z,5.63
2022-09-23T22:52:15.911Z,5.63
2022-09-23T22:54:43.157Z,5.30
2022-09-23T22:57:09.881Z,4.20
2022-09-23T22:59:39.732Z,3.70
2022-09-23T23:02:07.628Z,3.60
2022-09-23T23:04:35.119Z,3.72
2022-09-23T23:07:03.062Z,3.42
2022-09-23T23:09:29.822Z,3.70
2022-09-23T23:11:56.549Z,3.35
2022-09-23T23:14:23.266Z,3.58
2022-09-23T23:16:50.119Z,3.55
2022-09-23T23:19:17.467Z,3.75
2022-09-23T23:21:45.431Z,3.63
2022-09-23T23:24:23.915Z,3.47
2022-09-23T23:26:51.879Z,3.55
2022-09-23T23:29:20.780Z,3.45
2022-09-23T23:31:48.387Z,3.40
2022-09-23T23:34:20.528Z,3.17
2022-09-23T23:36:54.603Z,3.42
2022-09-23T23:39:24.135Z,3.50
2022-09-23T23:41:55.641Z,3.53
2022-09-23T23:44:24.535Z,3.75
2022-09-23T23:46:51.926Z,4.30
2022-09-23T23:49:18.811Z,3.30
2022-09-23T23:51:45.659Z,3.97
2022-09-23T23:54:12.693Z,4.03
2022-09-23T23:56:39.440Z,4.00
2022-09-23T23:59:06.324Z,4.25
